sensor_id;sensor_type;location;lat;lon;timestamp;temperature;humidity
22360;DHT22;11347;52.030;4.690;2022-08-02T00:00:06;22.60;45.60
22360;DHT22;11347;52.030;4.690;2022-08-02T00:02:32;22.50;45.60
22360;DHT22;11347;52.030;4.690;2022-08-02T00:04:58;22.50;45.60
22360;DHT22;11347;52.030;4.690;2022-08-02T00:07:24;22.50;45.60
22360;DHT22;11347;52.030;4.690;2022-08-02T00:09:49;22.50;45.60
22360;DHT22;11347;52.030;4.690;2022-08-02T00:12:15;22.50;45.70
22360;DHT22;11347;52.030;4.690;2022-08-02T00:14:41;22.50;45.60
22360;DHT22;11347;52.030;4.690;2022-08-02T00:17:07;22.50;45.70
22360;DHT22;11347;52.030;4.690;2022-08-02T00:19:33;22.50;45.90
22360;DHT22;11347;52.030;4.690;2022-08-02T00:21:58;22.50;45.70
22360;DHT22;11347;52.030;4.690;2022-08-02T00:24:24;22.50;45.40
22360;DHT22;11347;52.030;4.690;2022-08-02T00:26:49;22.50;45.50
22360;DHT22;11347;52.030;4.690;2022-08-02T00:29:15;22.50;45.60
22360;DHT22;11347;52.030;4.690;2022-08-02T00:31:41;22.50;45.70
22360;DHT22;11347;52.030;4.690;2022-08-02T00:34:06;22.50;45.70
22360;DHT22;11347;52.030;4.690;2022-08-02T00:36:32;22.40;45.60
22360;DHT22;11347;52.030;4.690;2022-08-02T00:38:57;22.40;45.50
22360;DHT22;11347;52.030;4.690;2022-08-02T00:41:23;22.40;45.60
22360;DHT22;11347;52.030;4.690;2022-08-02T00:43:50;22.40;45.50
22360;DHT22;11347;52.030;4.690;2022-08-02T00:46:17;22.40;45.50
22360;DHT22;11347;52.030;4.690;2022-08-02T00:48:43;22.40;45.40
22360;DHT22;11347;52.030;4.690;2022-08-02T00:51:08;22.40;45.40
22360;DHT22;11347;52.030;4.690;2022-08-02T00:53:34;22.40;45.20
22360;DHT22;11347;52.030;4.690;2022-08-02T00:56:00;22.40;45.20
22360;DHT22;11347;52.030;4.690;2022-08-02T00:58:26;22.40;45.30
22360;DHT22;11347;52.030;4.690;2022-08-02T01:00:51;22.40;45.20
22360;DHT22;11347;52.030;4.690;2022-08-02T01:03:17;22.40;45.20
22360;DHT22;11347;52.030;4.690;2022-08-02T01:05:43;22.40;45.20
22360;DHT22;11347;52.030;4.690;2022-08-02T01:08:09;22.40;45.20
22360;DHT22;11347;52.030;4.690;2022-08-02T01:10:35;22.40;45.10
22360;DHT22;11347;52.030;4.690;2022-08-02T01:13:00;22.40;45.30
22360;DHT22;11347;52.030;4.690;2022-08-02T01:15:26;22.40;45.20
22360;DHT22;11347;52.030;4.690;2022-08-02T01:18:09;22.30;45.10
22360;DHT22;11347;52.030;4.690;2022-08-02T01:29:07;22.30;44.70
22360;DHT22;11347;52.030;4.690;2022-08-02T01:31:47;22.30;44.80
22360;DHT22;11347;52.030;4.690;2022-08-02T01:34:34;22.30;44.90
22360;DHT22;11347;52.030;4.690;2022-08-02T01:37:15;22.30;44.80
22360;DHT22;11347;52.030;4.690;2022-08-02T01:39:43;22.30;44.80
22360;DHT22;11347;52.030;4.690;2022-08-02T01:42:10;22.20;44.90
22360;DHT22;11347;52.030;4.690;2022-08-02T01:44:40;22.20;44.90
22360;DHT22;11347;52.030;4.690;2022-08-02T01:47:14;22.20;45.00
22360;DHT22;11347;52.030;4.690;2022-08-02T01:49:45;22.20;45.00
22360;DHT22;11347;52.030;4.690;2022-08-02T01:52:12;22.20;45.00
22360;DHT22;11347;52.030;4.690;2022-08-02T01:55:12;22.20;45.00
22360;DHT22;11347;52.030;4.690;2022-08-02T01:57:58;22.20;45.00
22360;DHT22;11347;52.030;4.690;2022-08-02T02:00:27;22.20;45.10
22360;DHT22;11347;52.030;4.690;2022-08-02T02:02:54;22.20;45.20
22360;DHT22;11347;52.030;4.690;2022-08-02T02:05:23;22.20;45.30
22360;DHT22;11347;52.030;4.690;2022-08-02T02:07:52;22.20;45.40
22360;DHT22;11347;52.030;4.690;2022-08-02T02:10:27;22.20;45.40
22360;DHT22;11347;52.030;4.690;2022-08-02T02:12:55;22.20;45.60
22360;DHT22;11347;52.030;4.690;2022-08-02T02:15:23;22.20;45.60
22360;DHT22;11347;52.030;4.690;2022-08-02T02:17:50;22.20;45.60
22360;DHT22;11347;52.030;4.690;2022-08-02T02:20:19;22.20;45.60
22360;DHT22;11347;52.030;4.690;2022-08-02T02:22:46;22.20;45.50
22360;DHT22;11347;52.030;4.690;2022-08-02T02:25:13;22.20;45.50
22360;DHT22;11347;52.030;4.690;2022-08-02T02:27:47;22.20;45.40
22360;DHT22;11347;52.030;4.690;2022-08-02T02:30:15;22.20;46.00
22360;DHT22;11347;52.030;4.690;2022-08-02T02:32:43;22.20;45.30
22360;DHT22;11347;52.030;4.690;2022-08-02T02:35:10;22.20;45.50
22360;DHT22;11347;52.030;4.690;2022-08-02T02:37:38;22.20;45.40
22360;DHT22;11347;52.030;4.690;2022-08-02T02:40:05;22.20;45.50
22360;DHT22;11347;52.030;4.690;2022-08-02T02:42:32;22.20;45.40
22360;DHT22;11347;52.030;4.690;2022-08-02T02:44:59;22.20;45.50
22360;DHT22;11347;52.030;4.690;2022-08-02T02:47:27;22.20;45.50
22360;DHT22;11347;52.030;4.690;2022-08-02T02:49:56;22.20;45.40
22360;DHT22;11347;52.030;4.690;2022-08-02T02:52:22;22.20;45.40
22360;DHT22;11347;52.030;4.690;2022-08-02T02:54:48;22.10;45.30
22360;DHT22;11347;52.030;4.690;2022-08-02T02:57:15;22.10;45.50
22360;DHT22;11347;52.030;4.690;2022-08-02T02:59:41;22.10;45.50
22360;DHT22;11347;52.030;4.690;2022-08-02T03:02:09;22.10;45.60
22360;DHT22;11347;52.030;4.690;2022-08-02T03:04:35;22.10;45.70
22360;DHT22;11347;52.030;4.690;2022-08-02T03:07:03;22.10;45.60
22360;DHT22;11347;52.030;4.690;2022-08-02T03:09:28;22.10;45.70
22360;DHT22;11347;52.030;4.690;2022-08-02T03:11:54;22.10;45.60
22360;DHT22;11347;52.030;4.690;2022-08-02T03:14:21;22.10;46.30
22360;DHT22;11347;52.030;4.690;2022-08-02T03:16:50;22.10;45.70
22360;DHT22;11347;52.030;4.690;2022-08-02T03:19:16;22.10;45.80
22360;DHT22;11347;52.030;4.690;2022-08-02T03:21:43;22.10;45.80
22360;DHT22;11347;52.030;4.690;2022-08-02T03:24:09;22.10;45.70
22360;DHT22;11347;52.030;4.690;2022-08-02T03:26:35;22.10;45.80
22360;DHT22;11347;52.030;4.690;2022-08-02T03:29:01;22.10;45.80
22360;DHT22;11347;52.030;4.690;2022-08-02T03:31:27;22.10;45.80
22360;DHT22;11347;52.030;4.690;2022-08-02T03:33:57;22.10;45.90
22360;DHT22;11347;52.030;4.690;2022-08-02T03:36:26;22.10;46.00
22360;DHT22;11347;52.030;4.690;2022-08-02T03:38:52;22.10;45.90
22360;DHT22;11347;52.030;4.690;2022-08-02T03:41:19;22.10;46.00
22360;DHT22;11347;52.030;4.690;2022-08-02T03:43:47;22.00;45.70
22360;DHT22;11347;52.030;4.690;2022-08-02T03:46:16;22.10;45.80
22360;DHT22;11347;52.030;4.690;2022-08-02T03:48:42;22.00;45.70
22360;DHT22;11347;52.030;4.690;2022-08-02T03:51:08;22.10;45.80
22360;DHT22;11347;52.030;4.690;2022-08-02T03:53:35;22.00;45.70
22360;DHT22;11347;52.030;4.690;2022-08-02T03:56:01;22.00;45.70
22360;DHT22;11347;52.030;4.690;2022-08-02T03:58:26;22.00;45.70
22360;DHT22;11347;52.030;4.690;2022-08-02T04:00:54;22.00;45.70
22360;DHT22;11347;52.030;4.690;2022-08-02T04:03:19;22.00;45.70
22360;DHT22;11347;52.030;4.690;2022-08-02T04:05:45;22.00;45.80
22360;DHT22;11347;52.030;4.690;2022-08-02T04:08:11;22.00;45.80
22360;DHT22;11347;52.030;4.690;2022-08-02T04:10:37;22.00;45.80
22360;DHT22;11347;52.030;4.690;2022-08-02T04:13:22;22.00;45.80
22360;DHT22;11347;52.030;4.690;2022-08-02T04:15:53;22.00;45.80
22360;DHT22;11347;52.030;4.690;2022-08-02T04:18:21;22.00;45.90
22360;DHT22;11347;52.030;4.690;2022-08-02T04:20:49;22.00;46.00
22360;DHT22;11347;52.030;4.690;2022-08-02T04:23:16;22.00;46.00
22360;DHT22;11347;52.030;4.690;2022-08-02T04:25:42;22.00;46.00
22360;DHT22;11347;52.030;4.690;2022-08-02T04:28:09;22.00;46.30
22360;DHT22;11347;52.030;4.690;2022-08-02T04:30:37;22.00;46.30
22360;DHT22;11347;52.030;4.690;2022-08-02T04:33:04;22.00;46.30
22360;DHT22;11347;52.030;4.690;2022-08-02T04:35:29;21.90;46.10
22360;DHT22;11347;52.030;4.690;2022-08-02T04:37:55;22.00;46.40
22360;DHT22;11347;52.030;4.690;2022-08-02T04:40:21;22.00;46.40
22360;DHT22;11347;52.030;4.690;2022-08-02T04:42:46;22.00;46.50
22360;DHT22;11347;52.030;4.690;2022-08-02T04:45:12;22.00;46.50
22360;DHT22;11347;52.030;4.690;2022-08-02T04:47:38;22.00;46.80
22360;DHT22;11347;52.030;4.690;2022-08-02T04:50:04;22.00;47.10
22360;DHT22;11347;52.030;4.690;2022-08-02T04:52:30;22.00;47.20
22360;DHT22;11347;52.030;4.690;2022-08-02T04:54:56;22.00;47.00
22360;DHT22;11347;52.030;4.690;2022-08-02T04:57:21;22.00;47.00
22360;DHT22;11347;52.030;4.690;2022-08-02T05:00:07;22.00;46.70
22360;DHT22;11347;52.030;4.690;2022-08-02T05:02:34;22.00;46.70
22360;DHT22;11347;52.030;4.690;2022-08-02T05:04:59;22.00;46.60
22360;DHT22;11347;52.030;4.690;2022-08-02T05:07:25;22.00;46.60
22360;DHT22;11347;52.030;4.690;2022-08-02T05:09:51;22.00;46.60
22360;DHT22;11347;52.030;4.690;2022-08-02T05:12:16;22.00;46.50
22360;DHT22;11347;52.030;4.690;2022-08-02T05:14:42;22.00;46.60
22360;DHT22;11347;52.030;4.690;2022-08-02T05:17:07;22.00;46.50
22360;DHT22;11347;52.030;4.690;2022-08-02T05:19:33;22.00;46.50
22360;DHT22;11347;52.030;4.690;2022-08-02T05:21:58;22.00;46.40
22360;DHT22;11347;52.030;4.690;2022-08-02T05:24:24;22.10;46.50
22360;DHT22;11347;52.030;4.690;2022-08-02T05:26:50;22.10;46.40
22360;DHT22;11347;52.030;4.690;2022-08-02T05:29:16;22.10;46.40
22360;DHT22;11347;52.030;4.690;2022-08-02T05:31:41;22.10;46.40
22360;DHT22;11347;52.030;4.690;2022-08-02T05:34:07;22.10;46.30
22360;DHT22;11347;52.030;4.690;2022-08-02T05:36:32;22.10;46.40
22360;DHT22;11347;52.030;4.690;2022-08-02T05:38:58;22.10;46.40
22360;DHT22;11347;52.030;4.690;2022-08-02T05:41:24;22.20;46.40
22360;DHT22;11347;52.030;4.690;2022-08-02T05:43:49;22.20;46.40
22360;DHT22;11347;52.030;4.690;2022-08-02T05:46:15;22.20;46.50
22360;DHT22;11347;52.030;4.690;2022-08-02T05:48:40;22.20;46.50
22360;DHT22;11347;52.030;4.690;2022-08-02T05:51:11;22.20;46.60
22360;DHT22;11347;52.030;4.690;2022-08-02T05:53:53;22.20;46.60
22360;DHT22;11347;52.030;4.690;2022-08-02T05:56:23;22.30;46.60
22360;DHT22;11347;52.030;4.690;2022-08-02T05:58:54;22.30;46.60
22360;DHT22;11347;52.030;4.690;2022-08-02T06:01:33;22.30;46.50
22360;DHT22;11347;52.030;4.690;2022-08-02T06:04:05;22.30;46.60
22360;DHT22;11347;52.030;4.690;2022-08-02T06:06:32;22.30;46.60
22360;DHT22;11347;52.030;4.690;2022-08-02T06:09:01;22.40;46.70
22360;DHT22;11347;52.030;4.690;2022-08-02T06:11:38;22.40;46.60
22360;DHT22;11347;52.030;4.690;2022-08-02T06:14:05;22.40;46.50
22360;DHT22;11347;52.030;4.690;2022-08-02T06:16:32;22.50;46.60
22360;DHT22;11347;52.030;4.690;2022-08-02T06:18:59;22.50;46.30
22360;DHT22;11347;52.030;4.690;2022-08-02T06:21:26;22.50;46.30
22360;DHT22;11347;52.030;4.690;2022-08-02T06:23:52;22.50;46.30
22360;DHT22;11347;52.030;4.690;2022-08-02T06:26:18;22.60;46.40
22360;DHT22;11347;52.030;4.690;2022-08-02T06:28:47;22.60;46.40
22360;DHT22;11347;52.030;4.690;2022-08-02T06:31:14;22.60;46.20
22360;DHT22;11347;52.030;4.690;2022-08-02T06:33:40;22.60;46.00
22360;DHT22;11347;52.030;4.690;2022-08-02T06:38:52;22.70;45.70
22360;DHT22;11347;52.030;4.690;2022-08-02T06:41:20;22.60;45.60
22360;DHT22;11347;52.030;4.690;2022-08-02T06:43:59;22.70;45.60
22360;DHT22;11347;52.030;4.690;2022-08-02T06:46:26;22.70;45.60
22360;DHT22;11347;52.030;4.690;2022-08-02T06:48:52;22.80;45.70
22360;DHT22;11347;52.030;4.690;2022-08-02T06:51:18;22.80;45.70
22360;DHT22;11347;52.030;4.690;2022-08-02T06:53:44;22.80;45.60
22360;DHT22;11347;52.030;4.690;2022-08-02T06:56:10;22.80;45.70
22360;DHT22;11347;52.030;4.690;2022-08-02T06:58:36;22.90;45.80
22360;DHT22;11347;52.030;4.690;2022-08-02T07:01:02;22.90;45.80
22360;DHT22;11347;52.030;4.690;2022-08-02T07:03:32;22.90;45.80
22360;DHT22;11347;52.030;4.690;2022-08-02T07:05:58;23.00;45.90
22360;DHT22;11347;52.030;4.690;2022-08-02T07:08:23;23.00;45.90
22360;DHT22;11347;52.030;4.690;2022-08-02T07:10:50;23.00;45.90
22360;DHT22;11347;52.030;4.690;2022-08-02T07:13:16;23.10;46.00
22360;DHT22;11347;52.030;4.690;2022-08-02T07:15:41;23.10;46.10
22360;DHT22;11347;52.030;4.690;2022-08-02T07:18:07;23.10;46.30
22360;DHT22;11347;52.030;4.690;2022-08-02T07:20:39;23.20;46.50
22360;DHT22;11347;52.030;4.690;2022-08-02T07:23:05;23.20;46.40
22360;DHT22;11347;52.030;4.690;2022-08-02T07:25:30;23.20;46.60
22360;DHT22;11347;52.030;4.690;2022-08-02T07:27:56;23.20;46.70
22360;DHT22;11347;52.030;4.690;2022-08-02T07:30:22;23.20;46.90
22360;DHT22;11347;52.030;4.690;2022-08-02T07:32:47;23.30;47.10
22360;DHT22;11347;52.030;4.690;2022-08-02T07:35:13;23.30;47.10
22360;DHT22;11347;52.030;4.690;2022-08-02T07:37:38;23.30;47.30
22360;DHT22;11347;52.030;4.690;2022-08-02T07:40:08;23.30;47.90
22360;DHT22;11347;52.030;4.690;2022-08-02T07:42:34;23.30;48.30
22360;DHT22;11347;52.030;4.690;2022-08-02T07:44:59;23.40;48.80
22360;DHT22;11347;52.030;4.690;2022-08-02T07:47:25;23.40;48.90
22360;DHT22;11347;52.030;4.690;2022-08-02T07:49:51;23.40;48.80
22360;DHT22;11347;52.030;4.690;2022-08-02T07:52:16;23.40;49.00
22360;DHT22;11347;52.030;4.690;2022-08-02T07:54:42;23.40;49.00
22360;DHT22;11347;52.030;4.690;2022-08-02T07:57:07;23.40;49.10
22360;DHT22;11347;52.030;4.690;2022-08-02T07:59:33;23.40;49.00
22360;DHT22;11347;52.030;4.690;2022-08-02T08:01:58;23.50;49.30
22360;DHT22;11347;52.030;4.690;2022-08-02T08:04:24;23.50;49.30
22360;DHT22;11347;52.030;4.690;2022-08-02T08:06:49;23.50;49.60
22360;DHT22;11347;52.030;4.690;2022-08-02T08:09:17;23.50;49.70
22360;DHT22;11347;52.030;4.690;2022-08-02T08:11:43;23.60;49.50
22360;DHT22;11347;52.030;4.690;2022-08-02T08:14:08;23.60;49.80
22360;DHT22;11347;52.030;4.690;2022-08-02T08:16:34;23.60;49.80
22360;DHT22;11347;52.030;4.690;2022-08-02T08:19:00;23.60;49.70
22360;DHT22;11347;52.030;4.690;2022-08-02T08:21:27;23.60;49.80
22360;DHT22;11347;52.030;4.690;2022-08-02T08:23:54;23.60;50.00
22360;DHT22;11347;52.030;4.690;2022-08-02T08:26:20;23.60;49.60
22360;DHT22;11347;52.030;4.690;2022-08-02T08:28:45;23.70;49.90
22360;DHT22;11347;52.030;4.690;2022-08-02T08:31:11;23.70;49.80
22360;DHT22;11347;52.030;4.690;2022-08-02T08:33:37;23.70;49.90
22360;DHT22;11347;52.030;4.690;2022-08-02T08:36:02;23.70;49.80
22360;DHT22;11347;52.030;4.690;2022-08-02T08:38:28;23.70;49.90
22360;DHT22;11347;52.030;4.690;2022-08-02T08:40:54;23.80;49.90
22360;DHT22;11347;52.030;4.690;2022-08-02T08:43:20;23.80;49.90
22360;DHT22;11347;52.030;4.690;2022-08-02T08:45:47;23.80;50.00
22360;DHT22;11347;52.030;4.690;2022-08-02T08:48:14;23.80;49.90
22360;DHT22;11347;52.030;4.690;2022-08-02T08:53:10;23.90;49.90
22360;DHT22;11347;52.030;4.690;2022-08-02T08:55:37;23.90;49.90
22360;DHT22;11347;52.030;4.690;2022-08-02T08:58:03;23.90;49.80
22360;DHT22;11347;52.030;4.690;2022-08-02T09:00:33;23.90;49.80
22360;DHT22;11347;52.030;4.690;2022-08-02T09:03:02;23.90;49.80
22360;DHT22;11347;52.030;4.690;2022-08-02T09:05:28;23.90;50.00
22360;DHT22;11347;52.030;4.690;2022-08-02T09:07:54;24.00;50.00
22360;DHT22;11347;52.030;4.690;2022-08-02T09:10:41;24.00;49.90
22360;DHT22;11347;52.030;4.690;2022-08-02T09:13:24;24.10;50.00
22360;DHT22;11347;52.030;4.690;2022-08-02T09:16:12;24.10;49.90
22360;DHT22;11347;52.030;4.690;2022-08-02T09:18:39;24.10;49.90
22360;DHT22;11347;52.030;4.690;2022-08-02T09:21:07;24.20;50.00
22360;DHT22;11347;52.030;4.690;2022-08-02T09:23:40;24.20;50.00
22360;DHT22;11347;52.030;4.690;2022-08-02T09:26:11;24.20;49.90
22360;DHT22;11347;52.030;4.690;2022-08-02T09:28:40;24.20;49.80
22360;DHT22;11347;52.030;4.690;2022-08-02T09:31:10;24.20;49.80
22360;DHT22;11347;52.030;4.690;2022-08-02T09:33:38;24.20;49.70
22360;DHT22;11347;52.030;4.690;2022-08-02T09:36:07;24.20;49.50
22360;DHT22;11347;52.030;4.690;2022-08-02T09:38:35;24.30;50.20
22360;DHT22;11347;52.030;4.690;2022-08-02T09:41:03;24.40;49.60
22360;DHT22;11347;52.030;4.690;2022-08-02T09:43:40;24.30;49.30
22360;DHT22;11347;52.030;4.690;2022-08-02T09:46:28;24.40;49.30
22360;DHT22;11347;52.030;4.690;2022-08-02T09:49:08;24.40;49.20
22360;DHT22;11347;52.030;4.690;2022-08-02T09:51:39;24.40;49.10
22360;DHT22;11347;52.030;4.690;2022-08-02T09:54:07;24.40;49.00
22360;DHT22;11347;52.030;4.690;2022-08-02T09:56:48;24.40;49.00
22360;DHT22;11347;52.030;4.690;2022-08-02T09:59:16;24.40;49.00
22360;DHT22;11347;52.030;4.690;2022-08-02T10:01:43;24.50;48.90
22360;DHT22;11347;52.030;4.690;2022-08-02T10:04:12;24.50;49.00
22360;DHT22;11347;52.030;4.690;2022-08-02T10:06:40;24.50;48.80
22360;DHT22;11347;52.030;4.690;2022-08-02T10:09:06;24.50;48.80
22360;DHT22;11347;52.030;4.690;2022-08-02T10:11:32;24.50;48.80
22360;DHT22;11347;52.030;4.690;2022-08-02T10:14:01;24.50;48.80
22360;DHT22;11347;52.030;4.690;2022-08-02T10:16:27;24.50;48.70
22360;DHT22;11347;52.030;4.690;2022-08-02T10:18:54;24.60;48.70
22360;DHT22;11347;52.030;4.690;2022-08-02T10:24:11;24.60;48.60
22360;DHT22;11347;52.030;4.690;2022-08-02T10:26:39;24.60;48.50
22360;DHT22;11347;52.030;4.690;2022-08-02T10:29:07;24.60;48.40
22360;DHT22;11347;52.030;4.690;2022-08-02T10:31:46;24.60;48.40
22360;DHT22;11347;52.030;4.690;2022-08-02T10:34:17;24.70;48.40
22360;DHT22;11347;52.030;4.690;2022-08-02T10:36:44;24.60;48.20
22360;DHT22;11347;52.030;4.690;2022-08-02T10:39:11;24.70;48.50
22360;DHT22;11347;52.030;4.690;2022-08-02T10:44:05;24.70;48.30
22360;DHT22;11347;52.030;4.690;2022-08-02T10:49:01;24.70;48.20
22360;DHT22;11347;52.030;4.690;2022-08-02T10:54:25;24.70;48.10
22360;DHT22;11347;52.030;4.690;2022-08-02T10:56:54;24.70;48.10
22360;DHT22;11347;52.030;4.690;2022-08-02T10:59:27;24.70;48.10
22360;DHT22;11347;52.030;4.690;2022-08-02T11:01:57;24.80;48.20
22360;DHT22;11347;52.030;4.690;2022-08-02T11:07:16;24.80;47.90
22360;DHT22;11347;52.030;4.690;2022-08-02T11:09:43;24.80;48.50
22360;DHT22;11347;52.030;4.690;2022-08-02T11:12:11;24.80;47.90
22360;DHT22;11347;52.030;4.690;2022-08-02T11:14:42;24.90;48.00
22360;DHT22;11347;52.030;4.690;2022-08-02T11:17:12;24.90;48.00
22360;DHT22;11347;52.030;4.690;2022-08-02T11:22:32;24.90;47.90
22360;DHT22;11347;52.030;4.690;2022-08-02T11:27:53;24.90;48.60
22360;DHT22;11347;52.030;4.690;2022-08-02T11:30:19;24.90;48.10
22360;DHT22;11347;52.030;4.690;2022-08-02T11:32:46;25.00;48.30
22360;DHT22;11347;52.030;4.690;2022-08-02T11:35:12;25.00;48.30
22360;DHT22;11347;52.030;4.690;2022-08-02T11:37:40;25.00;48.10
22360;DHT22;11347;52.030;4.690;2022-08-02T11:40:09;25.10;48.10
22360;DHT22;11347;52.030;4.690;2022-08-02T11:42:37;25.10;48.10
22360;DHT22;11347;52.030;4.690;2022-08-02T11:45:05;25.10;48.00
22360;DHT22;11347;52.030;4.690;2022-08-02T11:47:31;25.10;47.70
22360;DHT22;11347;52.030;4.690;2022-08-02T11:50:07;25.10;47.50
22360;DHT22;11347;52.030;4.690;2022-08-02T11:52:34;25.10;48.00
22360;DHT22;11347;52.030;4.690;2022-08-02T11:55:00;25.20;47.30
22360;DHT22;11347;52.030;4.690;2022-08-02T11:57:26;25.20;47.20
22360;DHT22;11347;52.030;4.690;2022-08-02T11:59:54;25.20;47.10
22360;DHT22;11347;52.030;4.690;2022-08-02T12:02:25;25.20;47.20
22360;DHT22;11347;52.030;4.690;2022-08-02T12:04:58;25.20;47.20
22360;DHT22;11347;52.030;4.690;2022-08-02T12:07:29;25.30;47.30
22360;DHT22;11347;52.030;4.690;2022-08-02T12:10:08;25.30;47.40
22360;DHT22;11347;52.030;4.690;2022-08-02T12:12:51;25.30;47.30
22360;DHT22;11347;52.030;4.690;2022-08-02T12:18:07;25.30;46.90
22360;DHT22;11347;52.030;4.690;2022-08-02T12:20:51;25.30;46.90
22360;DHT22;11347;52.030;4.690;2022-08-02T12:23:17;25.30;46.70
22360;DHT22;11347;52.030;4.690;2022-08-02T12:25:43;25.40;46.70
22360;DHT22;11347;52.030;4.690;2022-08-02T12:28:19;25.40;46.70
22360;DHT22;11347;52.030;4.690;2022-08-02T12:30:55;25.40;46.60
22360;DHT22;11347;52.030;4.690;2022-08-02T12:33:23;25.40;46.40
22360;DHT22;11347;52.030;4.690;2022-08-02T12:35:49;25.40;46.30
22360;DHT22;11347;52.030;4.690;2022-08-02T12:38:15;25.40;46.20
22360;DHT22;11347;52.030;4.690;2022-08-02T12:40:40;25.40;46.20
22360;DHT22;11347;52.030;4.690;2022-08-02T12:43:07;25.50;46.20
22360;DHT22;11347;52.030;4.690;2022-08-02T12:45:51;25.50;46.20
22360;DHT22;11347;52.030;4.690;2022-08-02T12:48:37;25.50;46.10
22360;DHT22;11347;52.030;4.690;2022-08-02T12:51:25;25.50;46.00
22360;DHT22;11347;52.030;4.690;2022-08-02T12:53:52;25.50;46.10
22360;DHT22;11347;52.030;4.690;2022-08-02T12:56:31;25.50;46.20
22360;DHT22;11347;52.030;4.690;2022-08-02T12:58:58;25.50;46.20
22360;DHT22;11347;52.030;4.690;2022-08-02T13:01:25;25.50;46.20
22360;DHT22;11347;52.030;4.690;2022-08-02T13:03:52;25.50;46.30
22360;DHT22;11347;52.030;4.690;2022-08-02T13:06:19;25.50;46.30
22360;DHT22;11347;52.030;4.690;2022-08-02T13:08:44;25.50;46.30
22360;DHT22;11347;52.030;4.690;2022-08-02T13:11:10;25.50;46.30
22360;DHT22;11347;52.030;4.690;2022-08-02T13:13:36;25.70;46.50
22360;DHT22;11347;52.030;4.690;2022-08-02T13:16:02;25.60;46.50
22360;DHT22;11347;52.030;4.690;2022-08-02T13:18:28;25.60;46.30
22360;DHT22;11347;52.030;4.690;2022-08-02T13:20:53;25.60;46.40
22360;DHT22;11347;52.030;4.690;2022-08-02T13:23:19;25.60;46.40
22360;DHT22;11347;52.030;4.690;2022-08-02T13:25:45;25.60;46.50
22360;DHT22;11347;52.030;4.690;2022-08-02T13:28:11;25.70;46.70
22360;DHT22;11347;52.030;4.690;2022-08-02T13:30:37;25.70;46.70
22360;DHT22;11347;52.030;4.690;2022-08-02T13:33:02;25.70;46.70
22360;DHT22;11347;52.030;4.690;2022-08-02T13:35:29;25.70;46.90
22360;DHT22;11347;52.030;4.690;2022-08-02T13:37:54;25.70;46.90
22360;DHT22;11347;52.030;4.690;2022-08-02T13:40:20;25.70;47.00
22360;DHT22;11347;52.030;4.690;2022-08-02T13:42:47;25.70;47.00
22360;DHT22;11347;52.030;4.690;2022-08-02T13:45:12;25.80;47.10
22360;DHT22;11347;52.030;4.690;2022-08-02T13:47:38;25.80;47.00
22360;DHT22;11347;52.030;4.690;2022-08-02T13:50:05;25.80;47.00
22360;DHT22;11347;52.030;4.690;2022-08-02T13:52:31;25.80;47.10
22360;DHT22;11347;52.030;4.690;2022-08-02T13:54:57;25.80;47.00
22360;DHT22;11347;52.030;4.690;2022-08-02T13:57:23;25.80;47.20
22360;DHT22;11347;52.030;4.690;2022-08-02T13:59:48;25.80;47.20
22360;DHT22;11347;52.030;4.690;2022-08-02T14:02:14;25.90;47.30
22360;DHT22;11347;52.030;4.690;2022-08-02T14:04:40;25.90;47.50
22360;DHT22;11347;52.030;4.690;2022-08-02T14:07:05;25.90;47.50
22360;DHT22;11347;52.030;4.690;2022-08-02T14:09:31;25.90;47.50
22360;DHT22;11347;52.030;4.690;2022-08-02T14:11:58;25.90;47.50
22360;DHT22;11347;52.030;4.690;2022-08-02T14:14:24;25.90;47.60
22360;DHT22;11347;52.030;4.690;2022-08-02T14:16:50;25.90;47.60
22360;DHT22;11347;52.030;4.690;2022-08-02T14:19:16;25.90;47.70
22360;DHT22;11347;52.030;4.690;2022-08-02T14:21:42;25.90;47.80
22360;DHT22;11347;52.030;4.690;2022-08-02T14:24:08;25.90;48.10
22360;DHT22;11347;52.030;4.690;2022-08-02T14:26:33;25.90;48.20
22360;DHT22;11347;52.030;4.690;2022-08-02T14:28:59;26.00;48.20
22360;DHT22;11347;52.030;4.690;2022-08-02T14:31:24;26.00;48.40
22360;DHT22;11347;52.030;4.690;2022-08-02T14:33:50;26.00;48.40
22360;DHT22;11347;52.030;4.690;2022-08-02T14:36:15;26.00;48.40
22360;DHT22;11347;52.030;4.690;2022-08-02T14:38:41;26.00;48.40
22360;DHT22;11347;52.030;4.690;2022-08-02T14:41:07;26.00;48.20
22360;DHT22;11347;52.030;4.690;2022-08-02T14:43:32;26.00;48.30
22360;DHT22;11347;52.030;4.690;2022-08-02T14:46:17;26.00;48.30
22360;DHT22;11347;52.030;4.690;2022-08-02T14:48:42;26.00;48.20
22360;DHT22;11347;52.030;4.690;2022-08-02T14:51:08;26.00;48.20
22360;DHT22;11347;52.030;4.690;2022-08-02T14:53:33;26.00;48.20
22360;DHT22;11347;52.030;4.690;2022-08-02T14:55:59;26.00;48.20
22360;DHT22;11347;52.030;4.690;2022-08-02T14:58:25;26.00;48.20
22360;DHT22;11347;52.030;4.690;2022-08-02T15:00:50;26.00;48.10
22360;DHT22;11347;52.030;4.690;2022-08-02T15:03:16;26.00;48.10
22360;DHT22;11347;52.030;4.690;2022-08-02T15:05:43;26.00;48.20
22360;DHT22;11347;52.030;4.690;2022-08-02T15:08:08;26.00;48.30
22360;DHT22;11347;52.030;4.690;2022-08-02T15:10:34;26.00;48.30
22360;DHT22;11347;52.030;4.690;2022-08-02T15:13:00;26.00;48.70
22360;DHT22;11347;52.030;4.690;2022-08-02T15:15:25;26.00;48.90
22360;DHT22;11347;52.030;4.690;2022-08-02T15:17:51;26.00;48.90
22360;DHT22;11347;52.030;4.690;2022-08-02T15:20:17;26.00;49.30
22360;DHT22;11347;52.030;4.690;2022-08-02T15:22:42;26.10;49.60
22360;DHT22;11347;52.030;4.690;2022-08-02T15:25:08;26.10;49.60
22360;DHT22;11347;52.030;4.690;2022-08-02T15:27:33;26.10;49.60
22360;DHT22;11347;52.030;4.690;2022-08-02T15:29:59;26.10;49.90
22360;DHT22;11347;52.030;4.690;2022-08-02T15:32:25;26.10;49.90
22360;DHT22;11347;52.030;4.690;2022-08-02T15:34:51;26.10;50.00
22360;DHT22;11347;52.030;4.690;2022-08-02T15:37:17;26.10;50.20
22360;DHT22;11347;52.030;4.690;2022-08-02T15:39:43;26.10;50.30
22360;DHT22;11347;52.030;4.690;2022-08-02T15:42:09;26.20;50.60
22360;DHT22;11347;52.030;4.690;2022-08-02T15:44:35;26.20;50.80
22360;DHT22;11347;52.030;4.690;2022-08-02T15:47:01;26.20;50.80
22360;DHT22;11347;52.030;4.690;2022-08-02T15:49:29;26.20;50.80
22360;DHT22;11347;52.030;4.690;2022-08-02T15:51:55;26.20;50.90
22360;DHT22;11347;52.030;4.690;2022-08-02T15:54:20;26.20;51.00
22360;DHT22;11347;52.030;4.690;2022-08-02T15:56:46;26.20;51.90
22360;DHT22;11347;52.030;4.690;2022-08-02T15:59:12;26.20;51.30
22360;DHT22;11347;52.030;4.690;2022-08-02T16:01:38;26.20;51.20
22360;DHT22;11347;52.030;4.690;2022-08-02T16:04:04;26.20;51.30
22360;DHT22;11347;52.030;4.690;2022-08-02T16:06:30;26.20;51.40
22360;DHT22;11347;52.030;4.690;2022-08-02T16:08:55;26.20;51.40